CYNM

Details ICAO CYNM (YNM)
Name MATAGAMI
Region Canada
Timezone America/Montreal (UTC-4.0)
Plans Departing 7
Arriving 8
Stats Elevation 918 ft / 280 m (AMSL)
Location 49.761691° -77.802504°
Runways 1
Magnetic Variation 13.453° W
Sunrise 2018-05-25 09:15:37 UTC / 2018-05-25 05:15:37 Local
Sunset 2018-05-26 01:03:36 UTC / 2018-05-25 21:03:36 Local
Advertisement - Login to hide

Runways

ID Width Length Bearing (true) Bearing (mag) Surface Threshold Offset Overrun Length
15 100 ft / 30 m 4,993 ft / 1,522 m 134.24° 147.69° Asphalt 0 ft / 0 m 0 ft / 0 m
33 100 ft / 30 m 4,993 ft / 1,522 m 314.25° 327.70° Asphalt 0 ft / 0 m 0 ft / 0 m

Map

Weather


0- 5 10 15 20 25 30 35+ Temperature / ° C

Clouds and Precipitation
Forecast for 2018-05-25 12:00 UTC. Updated 2 hours ago

Ground ~20,000 ft ~40,000 ft Winds

METAR

CYNM 251100Z AUTO 35002KT 9SM CLR 15/10 A2966 RMK SLP048 DENSITY ALT 1400FT

TAF

Not found

Frequencies

Recorded 127.45 MHz AWOS
Unicom 122.80 MHz CTAF/UNICOM
Warning: Do not use this data for real-world aviation or navigation. No guarantee of current accuracy is given.